• Join FlightAware (Why Join?)
  • Login
  • US Flag 
02:53AM EDT


 

Airport Tracker/Info


-or-


 

Live Flight TrackerFlight Track Log ✈ DLH2705 ✈ 23-Apr-2013 ✈ EDDH / HAM - EDDL / DUS

Flight Track Log - Related Links

Times and Time Zones

All times are in EDT time to prevent confusion due to time zone crossing. See the DLH2705 flight status page for this flight to view local times or setup timezone preferences in your user account.

Time Position Orientation Groundspeed Altitude Reporting Facility
EDT Latitude Longitude Course Direction KTS MPH feet Rate Location/Type
02:50AM 53.3842 9.6268 221° Southwest  Level Estimated
02:51AM 53.3019 9.5072 221° Southwest  Level Estimated
02:52AM 53.2194 9.3882 221° Southwest  Level Estimated
02:53AM 53.1369 9.2695 221° Southwest  Level Estimated
02:54AM 53.0542 9.1513 221° Southwest  Level Estimated
02:55AM 52.9714 9.0336 221° Southwest  Level Estimated
02:56AM 52.8885 8.9164 221° Southwest  Level Estimated
02:57AM 52.8055 8.7995 220° Southwest  Level Estimated
02:58AM 52.7224 8.6831 220° Southwest  Level Estimated
02:59AM 52.6391 8.5672 220° Southwest  Level Estimated
03:00AM 52.5558 8.4517 220° Southwest  Level Estimated
03:01AM 52.4723 8.3366 220° Southwest  Level Estimated
03:02AM 52.3887 8.2220 220° Southwest  Level Estimated
03:03AM 52.3050 8.1078 220° Southwest  Level Estimated
03:04AM 52.2212 7.9941 220° Southwest  Level Estimated
03:05AM 52.1373 7.8807 220° Southwest  Level Estimated
03:06AM 52.0533 7.7678 220° Southwest  Level Estimated
03:07AM 51.9692 7.6554 219° Southwest  Level Estimated
03:08AM 51.8849 7.5433 219° Southwest  Level Estimated
03:09AM 51.8006 7.4317 219° Southwest  Level Estimated
03:10AM 51.7162 7.3204 219° Southwest  Level Estimated
03:11AM 51.6316 7.2096 219° Southwest  Level Estimated
03:12AM 51.5470 7.0992 219° Southwest  Level Estimated
03:13AM 51.4622 6.9893 219° Southwest  Level Estimated
03:14AM 51.3773 6.8797 219° Southwest  Level Estimated
03:15AM 51.2924 6.7705 219° Southwest  Level Estimated
03:16AM 51.2895 6.7668 219° Southwest  Level Estimated
03:17AM 51.2895 6.7668 314° West  Level Estimated
03:18AM 51.2895 6.7668 46° Northeast  Level Estimated
03:19AM 51.2895 6.7668 314° West  Level Estimated
03:20AM 51.2895 6.7668 46° Northeast  Level Estimated
03:21AM 51.2895 6.7668 314° West  Level Estimated
03:22AM 51.2895 6.7668 46° Northeast  Level Estimated
03:23AM 51.2895 6.7668 314° West  Level Estimated
03:24AM 51.2895 6.7668 46° Northeast  Level Estimated
03:25AM 51.2895 6.7668 314° West  Level Estimated
03:26AM 51.2895 6.7668 46° Northeast  Level Estimated
03:27AM 51.2895 6.7668 314° West  Level Estimated
03:28AM 51.2895 6.7668 46° Northeast  Level Estimated
03:29AM 51.2895 6.7668 314° West  Level Estimated
03:30AM 51.2895 6.7668 46° Northeast  Level Estimated
03:31AM 51.2895 6.7668 314° West  Level Estimated